Lorraine — A8IZ3 — position and weather

sailwx.info

Track history (hours):
 
Tides and Currents Weather Stations Pressure Air Temp Water Temp Dewpoint Dewpoint Depression Visibility Wind Speed Wind Dir Waves Ship Positions

Lorraine

Last reported at 2014-Jul-24 03:33 UTC. Time now 2014-Jul-24 04:26 UTC.
Position N 31°27' E 031°46'.

Length 221 m.

MMSI: 636012905.

Date/timePositionNaut miles runAvg speedWind from/ knotsBaromVisibWave heightAir tempDewpointWater temp
2014-Jul-24 03:33N 31°27' E 031°46'0 0.0
2014-Jul-24 02:30N 31°27' E 031°46'0 0.0
2014-Jul-24 01:32N 31°27' E 031°46'0 0.0
2014-Jul-24 00:33N 31°27' E 031°46'0 0.0
2014-Jul-23 23:32N 31°27' E 031°46'0 0.0
2014-Jul-23 22:33N 31°27' E 031°46'0 0.0
2014-Jul-23 21:33N 31°27' E 031°46'0 0.0
2014-Jul-23 20:33N 31°27' E 031°46'0 0.0
2014-Jul-23 19:33N 31°27' E 031°46'0 0.0
2014-Jul-23 18:33N 31°27' E 031°46'0 0.0
2014-Jul-23 17:33N 31°27' E 031°46'0 0.0
2014-Jul-23 16:33N 31°27' E 031°46'0 0.0
2014-Jul-23 15:33N 31°27' E 031°46'0 0.0
2014-Jul-23 14:33N 31°27' E 031°46'0 0.0
2014-Jul-23 09:33N 31°27' E 031°46'0 0.0
2014-Jul-23 07:27N 31°27' E 031°46'10 8.2
2014-Jul-23 06:16N 31°37' E 031°47'710.1
2014-Jul-23 05:33N 31°43' E 031°43'1513.8
2014-Jul-23 04:30N 31°45' E 031°26'1414.6
2014-Jul-23 03:33N 31°45' E 031°10'1514.6
2014-Jul-23 02:33N 31°43' E 030°52'1414.5
2014-Jul-23 01:33N 31°41' E 030°36'1414.4
2014-Jul-23 00:33N 31°39' E 030°19'2914.3
2014-Jul-22 22:33N 31°20' E 029°54'1110.0
2014-Jul-22 21:29N 31°10' E 029°50'2 1.2
2014-Jul-22 19:22N 31°11' E 029°53'0 0.0
2014-Jul-22 18:24N 31°11' E 029°53'0 0.0
2014-Jul-22 17:33N 31°11' E 029°53'0 0.0
2014-Jul-22 16:33N 31°11' E 029°53'0 0.0
2014-Jul-22 13:30N 31°11' E 029°53'  
2014-Jul-19 04:31N 36°17' E 015°03'1415.1
2014-Jul-19 03:33N 36°23' E 014°47'1514.9
2014-Jul-19 02:33N 36°29' E 014°30'1514.7
2014-Jul-19 01:33N 36°36' E 014°14'1414.5
2014-Jul-19 00:33N 36°44' E 013°58'1414.1
2014-Jul-18 23:34N 36°50' E 013°43'1414.2
2014-Jul-18 22:34N 36°58' E 013°28'7314.5
2014-Jul-18 17:34N 37°34' E 012°08'1714.6
2014-Jul-18 16:26N 37°42' E 011°50'1314.5
2014-Jul-18 15:33N 37°48' E 011°36'1514.5
2014-Jul-18 14:33N 37°55' E 011°20'10714.9
2014-Jul-18 07:24N 38°56' E 009°28'1315.1
2014-Jul-18 06:33N 39°03' E 009°14'1211.8
2014-Jul-18 05:33N 39°12' E 009°05'1 0.5
2014-Jul-18 04:28N 39°13' E 009°04'0 0.0
2014-Jul-18 03:28N 39°13' E 009°04'0 0.0
2014-Jul-18 02:33N 39°13' E 009°04'0 0.0
2014-Jul-18 01:33N 39°13' E 009°04'0 0.0
2014-Jul-18 00:32N 39°13' E 009°04'0 0.0
2014-Jul-17 23:32N 39°13' E 009°04'0 0.0
2014-Jul-17 22:32N 39°13' E 009°04'0 0.0
2014-Jul-17 21:31N 39°13' E 009°04'0 0.0
2014-Jul-17 20:31N 39°13' E 009°04'0 0.0
2014-Jul-17 19:30N 39°13' E 009°04'0 0.0
2014-Jul-17 18:30N 39°13' E 009°04'0 0.0
2014-Jul-17 17:29N 39°13' E 009°04'0 0.0
2014-Jul-17 16:29N 39°13' E 009°04'0 0.0
2014-Jul-17 15:28N 39°13' E 009°04'0 0.0
2014-Jul-17 14:28N 39°13' E 009°04'0 0.0
2014-Jul-17 13:28N 39°13' E 009°04'0 0.0
2014-Jul-17 12:33N 39°13' E 009°04'0 0.0
2014-Jul-17 11:33N 39°13' E 009°04'0 0.0
2014-Jul-17 10:32N 39°13' E 009°04'0 0.0
2014-Jul-17 09:32N 39°13' E 009°04'0 0.2
2014-Jul-17 08:33N 39°13' E 009°05'1110.6
2014-Jul-17 07:33N 39°04' E 009°13'1414.0
2014-Jul-17 06:33N 38°58' E 009°29'8814.6
2014-Jul-17 00:30N 39°30' E 011°15'9414.6
2014-Jul-16 18:03N 40°05' E 013°08'1114.4
2014-Jul-16 17:16N 40°10' E 013°22'1014.5
2014-Jul-16 16:33N 40°14' E 013°35'1414.3
2014-Jul-16 15:34N 40°19' E 013°52'1414.4
2014-Jul-16 14:34N 40°24' E 014°09'1514.4
2014-Jul-16 13:33N 40°30' E 014°27'10 0.6
2014-Jul-15 22:33N 40°34' E 014°39'1514.6
2014-Jul-15 21:33N 40°30' E 014°20'1211.8
2014-Jul-15 20:34N 40°33' E 014°06'1515.3
2014-Jul-15 19:33N 40°46' E 014°16'4 0.8
2014-Jul-15 14:24N 40°50' E 014°17'0 0.0
2014-Jul-15 08:14N 40°50' E 014°17'0 0.1
2014-Jul-15 05:10N 40°50' E 014°17'2 3.0
2014-Jul-15 04:33N 40°49' E 014°16'1 0.8
2014-Jul-15 03:29N 40°49' E 014°15'0 0.0
2014-Jul-15 02:28N 40°49' E 014°15'0 0.0
2014-Jul-15 01:28N 40°49' E 014°15'0 0.0
2014-Jul-15 00:33N 40°49' E 014°15'0 0.0
2014-Jul-14 23:24N 40°49' E 014°15'0 0.0
2014-Jul-14 22:14N 40°49' E 014°15'0 0.0
2014-Jul-14 21:32N 40°49' E 014°15'0 0.0
2014-Jul-14 20:32N 40°49' E 014°15'0 0.0
2014-Jul-14 19:31N 40°49' E 014°15'0 0.0
2014-Jul-14 18:31N 40°49' E 014°15'0 0.0
2014-Jul-14 17:27N 40°49' E 014°15'0 0.0
2014-Jul-14 16:21N 40°49' E 014°15'1 1.4
2014-Jul-14 15:33N 40°48' E 014°16'1313.1
2014-Jul-14 14:33N 40°39' E 014°04'1514.5
2014-Jul-14 13:33N 40°37' E 013°45'1615.6
2014-Jul-14 12:33N 40°39' E 013°25'  
Track history (hours):
 
Tides and Currents Weather Stations Pressure Air Temp Water Temp Dewpoint Dewpoint Depression Visibility Wind Speed Wind Dir Waves Ship Positions

Lorraine

Last reported at 2014-Jul-24 03:33 UTC. Time now 2014-Jul-24 04:26 UTC.
Position N 31°27' E 031°46'.

Length 221 m.

MMSI: 636012905.

Date/timePositionNaut miles runAvg speedWind from/ knotsBaromVisibWave heightAir tempDewpointWater temp
2014-Jul-24 03:33N 31°27' E 031°46'0 0.0
2014-Jul-24 02:30N 31°27' E 031°46'0 0.0
2014-Jul-24 01:32N 31°27' E 031°46'0 0.0
2014-Jul-24 00:33N 31°27' E 031°46'0 0.0
2014-Jul-23 23:32N 31°27' E 031°46'0 0.0
2014-Jul-23 22:33N 31°27' E 031°46'0 0.0
2014-Jul-23 21:33N 31°27' E 031°46'0 0.0
2014-Jul-23 20:33N 31°27' E 031°46'0 0.0
2014-Jul-23 19:33N 31°27' E 031°46'0 0.0
2014-Jul-23 18:33N 31°27' E 031°46'0 0.0
2014-Jul-23 17:33N 31°27' E 031°46'0 0.0
2014-Jul-23 16:33N 31°27' E 031°46'0 0.0
2014-Jul-23 15:33N 31°27' E 031°46'0 0.0
2014-Jul-23 14:33N 31°27' E 031°46'0 0.0
2014-Jul-23 09:33N 31°27' E 031°46'0 0.0
2014-Jul-23 07:27N 31°27' E 031°46'10 8.2
2014-Jul-23 06:16N 31°37' E 031°47'710.1
2014-Jul-23 05:33N 31°43' E 031°43'1513.8
2014-Jul-23 04:30N 31°45' E 031°26'1414.6
2014-Jul-23 03:33N 31°45' E 031°10'1514.6
2014-Jul-23 02:33N 31°43' E 030°52'1414.5
2014-Jul-23 01:33N 31°41' E 030°36'1414.4
2014-Jul-23 00:33N 31°39' E 030°19'2914.3
2014-Jul-22 22:33N 31°20' E 029°54'1110.0
2014-Jul-22 21:29N 31°10' E 029°50'2 1.2
2014-Jul-22 19:22N 31°11' E 029°53'0 0.0
2014-Jul-22 18:24N 31°11' E 029°53'0 0.0
2014-Jul-22 17:33N 31°11' E 029°53'0 0.0
2014-Jul-22 16:33N 31°11' E 029°53'0 0.0
2014-Jul-22 13:30N 31°11' E 029°53'  
2014-Jul-19 04:31N 36°17' E 015°03'1415.1
2014-Jul-19 03:33N 36°23' E 014°47'1514.9
2014-Jul-19 02:33N 36°29' E 014°30'1514.7
2014-Jul-19 01:33N 36°36' E 014°14'1414.5
2014-Jul-19 00:33N 36°44' E 013°58'1414.1
2014-Jul-18 23:34N 36°50' E 013°43'1414.2
2014-Jul-18 22:34N 36°58' E 013°28'7314.5
2014-Jul-18 17:34N 37°34' E 012°08'1714.6
2014-Jul-18 16:26N 37°42' E 011°50'1314.5
2014-Jul-18 15:33N 37°48' E 011°36'1514.5
2014-Jul-18 14:33N 37°55' E 011°20'10714.9
2014-Jul-18 07:24N 38°56' E 009°28'1315.1
2014-Jul-18 06:33N 39°03' E 009°14'1211.8
2014-Jul-18 05:33N 39°12' E 009°05'1 0.5
2014-Jul-18 04:28N 39°13' E 009°04'0 0.0
2014-Jul-18 03:28N 39°13' E 009°04'0 0.0
2014-Jul-18 02:33N 39°13' E 009°04'0 0.0
2014-Jul-18 01:33N 39°13' E 009°04'0 0.0
2014-Jul-18 00:32N 39°13' E 009°04'0 0.0
2014-Jul-17 23:32N 39°13' E 009°04'0 0.0
2014-Jul-17 22:32N 39°13' E 009°04'0 0.0
2014-Jul-17 21:31N 39°13' E 009°04'0 0.0
2014-Jul-17 20:31N 39°13' E 009°04'0 0.0
2014-Jul-17 19:30N 39°13' E 009°04'0 0.0
2014-Jul-17 18:30N 39°13' E 009°04'0 0.0
2014-Jul-17 17:29N 39°13' E 009°04'0 0.0
2014-Jul-17 16:29N 39°13' E 009°04'0 0.0
2014-Jul-17 15:28N 39°13' E 009°04'0 0.0
2014-Jul-17 14:28N 39°13' E 009°04'0 0.0
2014-Jul-17 13:28N 39°13' E 009°04'0 0.0
2014-Jul-17 12:33N 39°13' E 009°04'0 0.0
2014-Jul-17 11:33N 39°13' E 009°04'0 0.0
2014-Jul-17 10:32N 39°13' E 009°04'0 0.0
2014-Jul-17 09:32N 39°13' E 009°04'0 0.2
2014-Jul-17 08:33N 39°13' E 009°05'1110.6
2014-Jul-17 07:33N 39°04' E 009°13'1414.0
2014-Jul-17 06:33N 38°58' E 009°29'8814.6
2014-Jul-17 00:30N 39°30' E 011°15'9414.6
2014-Jul-16 18:03N 40°05' E 013°08'1114.4
2014-Jul-16 17:16N 40°10' E 013°22'1014.5
2014-Jul-16 16:33N 40°14' E 013°35'1414.3
2014-Jul-16 15:34N 40°19' E 013°52'1414.4
2014-Jul-16 14:34N 40°24' E 014°09'1514.4
2014-Jul-16 13:33N 40°30' E 014°27'10 0.6
2014-Jul-15 22:33N 40°34' E 014°39'1514.6
2014-Jul-15 21:33N 40°30' E 014°20'1211.8
2014-Jul-15 20:34N 40°33' E 014°06'1515.3
2014-Jul-15 19:33N 40°46' E 014°16'4 0.8
2014-Jul-15 14:24N 40°50' E 014°17'0 0.0
2014-Jul-15 08:14N 40°50' E 014°17'0 0.1
2014-Jul-15 05:10N 40°50' E 014°17'2 3.0
2014-Jul-15 04:33N 40°49' E 014°16'1 0.8
2014-Jul-15 03:29N 40°49' E 014°15'0 0.0
2014-Jul-15 02:28N 40°49' E 014°15'0 0.0
2014-Jul-15 01:28N 40°49' E 014°15'0 0.0
2014-Jul-15 00:33N 40°49' E 014°15'0 0.0
2014-Jul-14 23:24N 40°49' E 014°15'0 0.0
2014-Jul-14 22:14N 40°49' E 014°15'0 0.0
2014-Jul-14 21:32N 40°49' E 014°15'0 0.0
2014-Jul-14 20:32N 40°49' E 014°15'0 0.0
2014-Jul-14 19:31N 40°49' E 014°15'0 0.0
2014-Jul-14 18:31N 40°49' E 014°15'0 0.0
2014-Jul-14 17:27N 40°49' E 014°15'0 0.0
2014-Jul-14 16:21N 40°49' E 014°15'1 1.4
2014-Jul-14 15:33N 40°48' E 014°16'1313.1
2014-Jul-14 14:33N 40°39' E 014°04'1514.5
2014-Jul-14 13:33N 40°37' E 013°45'1615.6
2014-Jul-14 12:33N 40°39' E 013°25'  

Dump ship's entire track history